Time;durP1;ratioP1;P1;durP2;ratioP2;P2;SDS_P1;SDS_P2;PMS_P1;PMS_P2;Temp;Humidity;BMP_temperature;BMP_pressure;BME280_temperature;BME280_humidity;BME280_pressure;Samples;Min_cycle;Max_cycle;Signal;HPM_P1;HPM_P2
2023/07/24 00:02:02;;;;;;;8.07;3.10;;;14.20;99.90;;;;;;5082980;28;20246;-84
2023/07/24 00:04:34;;;;;;;6.57;2.70;;;14.30;99.90;;;;;;5092444;28;20237;-85
2023/07/24 00:07:05;;;;;;;6.97;2.97;;;14.20;99.90;;;;;;5098657;28;20222;-85
2023/07/24 00:09:35;;;;;;;8.05;2.70;;;14.40;99.90;;;;;;5089690;28;20197;-84
2023/07/24 00:12:06;;;;;;;9.05;2.63;;;14.30;99.90;;;;;;5080572;28;20207;-86
2023/07/24 00:14:37;;;;;;;6.40;2.60;;;14.30;99.90;;;;;;5094912;28;20215;-84
2023/07/24 00:17:10;;;;;;;5.97;2.58;;;14.30;99.90;;;;;;5096798;28;20262;-84
2023/07/24 00:19:41;;;;;;;7.32;2.65;;;14.40;99.90;;;;;;5078670;28;20226;-86
2023/07/24 00:22:13;;;;;;;6.90;2.90;;;14.50;99.90;;;;;;5092094;28;20222;-85
2023/07/24 00:24:43;;;;;;;5.47;2.90;;;14.50;99.90;;;;;;5101320;28;20286;-85
2023/07/24 00:27:15;;;;;;;6.20;3.33;;;14.50;99.90;;;;;;5084513;28;20211;-83
2023/07/24 00:29:46;;;;;;;6.65;3.03;;;14.60;99.90;;;;;;5090115;28;20612;-83
2023/07/24 00:32:18;;;;;;;7.80;2.90;;;14.70;99.90;;;;;;5088980;28;20304;-85
2023/07/24 00:34:49;;;;;;;6.60;2.85;;;14.80;99.90;;;;;;5090184;28;20282;-85
2023/07/24 00:37:20;;;;;;;8.30;3.33;;;15.00;99.90;;;;;;5088890;28;20207;-85
2023/07/24 00:39:51;;;;;;;8.13;3.22;;;15.20;99.90;;;;;;5085862;28;20195;-85
2023/07/24 00:42:22;;;;;;;6.97;3.10;;;15.30;99.90;;;;;;5090896;28;20275;-85
2023/07/24 00:44:53;;;;;;;8.38;3.33;;;15.50;99.90;;;;;;5080388;28;20274;-86
2023/07/24 00:47:27;;;;;;;7.97;3.50;;;15.60;99.90;;;;;;5077190;28;20311;-85
2023/07/24 00:49:59;;;;;;;6.85;3.30;;;15.70;99.90;;;;;;5079577;28;20616;-85
2023/07/24 00:52:29;;;;;;;5.30;2.83;;;15.80;99.90;;;;;;5090490;28;20188;-86
2023/07/24 00:55:00;;;;;;;12.43;3.00;;;15.70;99.90;;;;;;5082216;28;20191;-85
2023/07/24 00:57:32;;;;;;;7.38;2.55;;;15.80;99.90;;;;;;5089470;28;20565;-86
2023/07/24 01:00:03;;;;;;;7.43;2.33;;;15.80;99.90;;;;;;5090852;28;20662;-87
2023/07/24 01:02:37;;;;;;;6.43;2.40;;;15.80;99.90;;;;;;5077293;28;20241;-85
2023/07/24 01:05:08;;;;;;;4.13;2.35;;;15.90;99.90;;;;;;5090997;28;20296;-86
2023/07/24 01:07:39;;;;;;;5.43;2.25;;;15.90;99.90;;;;;;5097219;28;20227;-86
2023/07/24 01:10:10;;;;;;;5.07;2.13;;;15.80;99.90;;;;;;5090061;28;20574;-87
2023/07/24 01:12:48;;;;;;;7.50;3.60;;;15.80;99.90;;;;;;5081616;28;20188;-86
2023/07/24 01:15:24;;;;;;;6.40;2.92;;;15.70;99.90;;;;;;5087057;28;20582;-85
2023/07/24 01:18:02;;;;;;;6.60;3.13;;;15.70;99.90;;;;;;5077460;28;20191;-85
2023/07/24 01:20:37;;;;;;;11.40;2.88;;;15.60;99.90;;;;;;5084253;28;20669;-85
2023/07/24 01:23:25;;;;;;;9.40;3.00;;;15.70;99.90;;;;;;5091030;28;20199;-87
2023/07/24 01:26:02;;;;;;;7.63;2.70;;;15.70;99.90;;;;;;5085306;28;20187;-85
2023/07/24 01:28:33;;;;;;;11.98;2.33;;;15.70;99.90;;;;;;5087005;28;20223;-87
2023/07/24 01:31:04;;;;;;;9.50;2.75;;;15.80;99.90;;;;;;5096973;28;20585;-86
2023/07/24 01:33:36;;;;;;;9.45;2.72;;;15.80;99.90;;;;;;5076339;28;20298;-84
2023/07/24 01:36:08;;;;;;;10.38;3.00;;;15.80;99.90;;;;;;5093519;28;20200;-86
2023/07/24 01:38:39;;;;;;;7.72;3.20;;;15.80;99.90;;;;;;5091801;28;20195;-87
2023/07/24 01:41:12;;;;;;;11.75;4.80;;;15.80;99.90;;;;;;5089291;28;20278;-85
2023/07/24 01:43:43;;;;;;;11.98;3.67;;;15.80;99.90;;;;;;5083168;28;20199;-86
2023/07/24 01:46:14;;;;;;;8.25;3.20;;;15.80;99.90;;;;;;5086576;28;20203;-85
2023/07/24 01:48:45;;;;;;;8.90;2.90;;;15.90;99.90;;;;;;5070761;28;20238;-84
2023/07/24 01:51:17;;;;;;;7.80;2.17;;;15.90;99.90;;;;;;5088829;28;20223;-87
2023/07/24 01:53:48;;;;;;;10.85;2.92;;;15.90;99.90;;;;;;5090210;28;20618;-86
2023/07/24 01:56:21;;;;;;;6.03;2.00;;;16.00;99.90;;;;;;5091681;28;20179;-86
2023/07/24 01:58:51;;;;;;;6.32;2.05;;;16.00;99.90;;;;;;5079779;28;20195;-86
2023/07/24 02:01:22;;;;;;;7.43;2.28;;;16.10;99.90;;;;;;5078092;28;20191;-87
2023/07/24 02:03:53;;;;;;;5.10;2.30;;;16.10;99.90;;;;;;5077989;28;20237;-86
2023/07/24 02:06:24;;;;;;;6.35;2.22;;;16.10;99.90;;;;;;5091356;28;20191;-87
2023/07/24 02:08:54;;;;;;;7.60;2.47;;;16.20;99.90;;;;;;5091000;28;20199;-87
2023/07/24 02:11:27;;;;;;;9.75;2.30;;;16.30;99.90;;;;;;5090557;28;20749;-84
2023/07/24 02:14:01;;;;;;;7.25;2.03;;;16.40;99.90;;;;;;5088280;28;20665;-86
2023/07/24 02:16:32;;;;;;;6.60;2.65;;;16.40;99.90;;;;;;5089673;28;20203;-86
2023/07/24 02:19:06;;;;;;;6.80;1.80;;;16.40;99.90;;;;;;5072112;28;20223;-85
2023/07/24 02:21:37;;;;;;;7.15;1.58;;;16.50;99.90;;;;;;5073726;28;20187;-84
2023/07/24 02:24:08;;;;;;;6.88;1.98;;;16.50;99.90;;;;;;5070995;28;20216;-85
2023/07/24 02:26:41;;;;;;;5.38;1.50;;;16.60;99.90;;;;;;5081240;28;20658;-84
2023/07/24 02:29:11;;;;;;;6.47;1.73;;;16.60;99.90;;;;;;5081371;28;20219;-84
2023/07/24 02:31:42;;;;;;;8.10;1.60;;;16.50;99.90;;;;;;5083870;28;20242;-84
2023/07/24 02:34:14;;;;;;;6.47;1.70;;;16.60;99.90;;;;;;5069402;28;20662;-85
2023/07/24 02:36:45;;;;;;;5.95;1.83;;;16.60;99.90;;;;;;5070511;28;20228;-84
2023/07/24 02:39:16;;;;;;;7.40;2.20;;;16.60;99.90;;;;;;5075217;28;20268;-85
2023/07/24 02:41:53;;;;;;;10.23;2.10;;;16.70;99.90;;;;;;5081121;28;20202;-85
2023/07/24 02:44:24;;;;;;;6.07;2.00;;;16.70;99.90;;;;;;5090805;28;20222;-83
2023/07/24 02:46:55;;;;;;;7.80;1.70;;;16.70;99.90;;;;;;5078307;28;20200;-85
2023/07/24 02:49:25;;;;;;;4.03;1.60;;;16.80;99.90;;;;;;5086904;28;20202;-84
2023/07/24 02:51:56;;;;;;;6.88;1.90;;;16.80;99.90;;;;;;5082414;28;20204;-84
2023/07/24 02:54:28;;;;;;;5.78;1.85;;;16.70;99.90;;;;;;5090264;28;20202;-84
2023/07/24 02:57:01;;;;;;;4.85;1.35;;;16.70;99.90;;;;;;5093297;28;20692;-85
2023/07/24 02:59:32;;;;;;;6.90;1.60;;;16.70;99.90;;;;;;5080726;28;20213;-85
2023/07/24 03:02:03;;;;;;;7.70;2.13;;;16.70;99.90;;;;;;5106297;28;20217;-85
2023/07/24 03:04:34;;;;;;;3.95;1.50;;;16.70;99.90;;;;;;5086734;28;20636;-85
2023/07/24 03:07:05;;;;;;;7.40;2.33;;;16.70;99.90;;;;;;5076303;28;20210;-84
2023/07/24 03:09:35;;;;;;;8.35;2.10;;;16.70;99.90;;;;;;5083472;28;20203;-84
2023/07/24 03:12:08;;;;;;;5.57;1.40;;;16.70;99.90;;;;;;5091200;28;20183;-84
2023/07/24 03:14:39;;;;;;;6.15;1.50;;;16.80;99.90;;;;;;5089404;28;20217;-85
2023/07/24 03:17:10;;;;;;;6.68;1.52;;;16.80;99.90;;;;;;5087340;28;20220;-85
2023/07/24 03:19:41;;;;;;;5.60;1.60;;;16.90;99.90;;;;;;5086778;28;20567;-84
2023/07/24 03:22:12;;;;;;;5.47;1.63;;;16.90;99.90;;;;;;5087036;28;20191;-85
2023/07/24 03:24:42;;;;;;;5.55;1.70;;;16.90;99.90;;;;;;5075429;28;20230;-84
2023/07/24 03:27:15;;;;;;;4.05;1.25;;;16.90;99.90;;;;;;5078608;28;20192;-84
2023/07/24 03:29:46;;;;;;;4.38;1.60;;;17.00;99.90;;;;;;5089474;28;20191;-84
2023/07/24 03:32:17;;;;;;;4.82;1.88;;;17.00;99.90;;;;;;5094404;28;20214;-85
2023/07/24 03:34:47;;;;;;;5.22;1.63;;;17.00;99.90;;;;;;5093566;28;20206;-84
2023/07/24 03:37:21;;;;;;;6.95;1.60;;;17.00;99.90;;;;;;5094647;28;20188;-84
2023/07/24 03:39:52;;;;;;;5.45;1.60;;;17.00;99.90;;;;;;5105418;28;20734;-83
2023/07/24 03:42:31;;;;;;;5.63;1.65;;;17.10;99.90;;;;;;5081778;28;20611;-86
2023/07/24 03:45:02;;;;;;;6.18;1.83;;;17.10;99.90;;;;;;5070888;28;20589;-85
2023/07/24 03:47:33;;;;;;;6.28;2.00;;;17.10;99.90;;;;;;5087620;28;20224;-84
2023/07/24 03:50:04;;;;;;;6.65;1.88;;;17.20;99.90;;;;;;5086347;28;20187;-84
2023/07/24 03:52:35;;;;;;;5.40;1.90;;;17.20;99.90;;;;;;5090976;28;20200;-84
2023/07/24 03:55:06;;;;;;;11.70;2.10;;;17.20;99.90;;;;;;5092836;28;20211;-85
2023/07/24 03:57:39;;;;;;;6.80;2.15;;;17.20;99.90;;;;;;5078229;28;20204;-84
2023/07/24 04:00:10;;;;;;;7.70;1.92;;;17.20;99.90;;;;;;5088782;28;20207;-85
2023/07/24 04:02:41;;;;;;;7.55;2.15;;;17.20;99.90;;;;;;5092575;28;20232;-85
2023/07/24 04:05:12;;;;;;;8.13;2.05;;;17.20;99.90;;;;;;5076888;28;20220;-85
2023/07/24 04:07:43;;;;;;;5.53;1.90;;;17.20;99.90;;;;;;5075610;28;20219;-85
2023/07/24 04:10:15;;;;;;;4.03;1.75;;;17.20;99.90;;;;;;5087187;28;20210;-87
2023/07/24 04:12:47;;;;;;;5.15;1.75;;;17.30;99.90;;;;;;5089277;28;20227;-87
2023/07/24 04:15:18;;;;;;;5.18;1.75;;;17.40;99.90;;;;;;5072501;28;20200;-87
2023/07/24 04:17:49;;;;;;;6.00;1.73;;;17.50;99.90;;;;;;5072722;28;20666;-87
2023/07/24 04:20:20;;;;;;;9.65;2.55;;;17.50;99.90;;;;;;5073559;28;20207;-87
2023/07/24 04:22:51;;;;;;;6.07;2.00;;;17.60;99.90;;;;;;5073288;28;20204;-87
2023/07/24 04:25:21;;;;;;;8.77;1.70;;;17.70;99.90;;;;;;5072449;28;20651;-88
2023/07/24 04:27:54;;;;;;;8.27;1.80;;;17.60;99.90;;;;;;5078151;28;20302;-88
2023/07/24 04:30:25;;;;;;;5.20;2.13;;;17.60;99.90;;;;;;5086428;28;20192;-90
2023/07/24 04:32:56;;;;;;;6.53;2.05;;;17.60;99.90;;;;;;5079642;28;20199;-88
2023/07/24 04:35:27;;;;;;;6.75;2.25;;;17.70;99.90;;;;;;5098491;28;20209;-89
2023/07/24 04:37:57;;;;;;;6.30;1.80;;;17.60;99.90;;;;;;5100686;28;20740;-89
2023/07/24 04:40:28;;;;;;;4.78;1.80;;;17.70;99.90;;;;;;5087056;28;20216;-89
2023/07/24 04:43:03;;;;;;;7.90;2.05;;;17.70;99.90;;;;;;5077417;28;20188;-87
2023/07/24 04:45:33;;;;;;;6.45;1.90;;;17.70;99.90;;;;;;5078204;28;20211;-89
2023/07/24 04:48:06;;;;;;;4.65;1.55;;;17.70;99.90;;;;;;5078352;28;20230;-88
2023/07/24 04:50:38;;;;;;;5.45;1.80;;;17.70;99.90;;;;;;5093385;28;20214;-90
2023/07/24 04:53:09;;;;;;;5.63;1.75;;;17.60;99.90;;;;;;5093315;28;20202;-89
2023/07/24 04:55:43;;;;;;;5.45;1.60;;;17.50;99.90;;;;;;5084901;28;20287;-90
2023/07/24 04:58:17;;;;;;;4.07;1.63;;;17.40;99.90;;;;;;5092081;28;20225;-88
2023/07/24 05:00:48;;;;;;;8.00;1.90;;;17.40;99.90;;;;;;5100243;28;20261;-88
2023/07/24 05:03:19;;;;;;;6.63;1.80;;;17.30;99.90;;;;;;5078339;28;20231;-87
2023/07/24 05:05:57;;;;;;;4.38;1.55;;;17.20;99.90;;;;;;5085116;28;20191;-87
2023/07/24 05:08:28;;;;;;;5.10;1.88;;;17.20;99.90;;;;;;5084551;28;20261;-86
2023/07/24 05:11:01;;;;;;;6.20;1.92;;;17.30;99.90;;;;;;5074890;28;20299;-85
2023/07/24 05:13:34;;;;;;;5.45;1.80;;;17.30;99.90;;;;;;5077198;28;20664;-85
2023/07/24 05:16:04;;;;;;;6.57;1.70;;;17.30;99.90;;;;;;5097228;28;20291;-84
2023/07/24 05:18:35;;;;;;;11.48;1.70;;;17.30;99.90;;;;;;5102354;28;20221;-84
2023/07/24 05:21:06;;;;;;;4.38;1.52;;;17.30;99.90;;;;;;5090622;28;20227;-86
2023/07/24 05:23:37;;;;;;;5.38;1.60;;;17.30;99.90;;;;;;5091575;28;20199;-85
2023/07/24 05:26:08;;;;;;;3.75;1.80;;;17.20;99.90;;;;;;5087109;28;20199;-85
2023/07/24 05:28:42;;;;;;;6.90;1.90;;;17.30;99.90;;;;;;5072476;28;20701;-87
2023/07/24 05:31:14;;;;;;;4.10;1.77;;;17.30;99.90;;;;;;5077505;28;20324;-87
2023/07/24 05:33:45;;;;;;;5.53;1.45;;;17.30;99.90;;;;;;5090718;28;20200;-87
2023/07/24 05:36:15;;;;;;;4.68;1.52;;;17.40;99.90;;;;;;5091662;28;20573;-87
2023/07/24 05:38:47;;;;;;;5.47;1.77;;;17.50;99.90;;;;;;5072207;28;20206;-85
2023/07/24 05:41:18;;;;;;;4.90;1.45;;;17.50;99.90;;;;;;5071142;28;20184;-86
2023/07/24 05:43:51;;;;;;;6.43;1.67;;;17.40;99.90;;;;;;5070824;28;20184;-85
2023/07/24 05:46:22;;;;;;;4.70;1.50;;;17.40;99.90;;;;;;5072087;28;20188;-85
2023/07/24 05:48:53;;;;;;;6.22;1.45;;;17.40;99.90;;;;;;5081199;28;20224;-85
2023/07/24 05:51:24;;;;;;;3.53;1.60;;;17.40;99.90;;;;;;5089032;28;20199;-86
2023/07/24 05:53:55;;;;;;;5.72;1.70;;;17.50;99.90;;;;;;5082474;28;20624;-86
2023/07/24 05:56:26;;;;;;;4.90;1.73;;;17.50;99.90;;;;;;5073850;28;20770;-85
2023/07/24 05:58:58;;;;;;;6.13;1.60;;;17.50;99.90;;;;;;5085451;28;20221;-86
2023/07/24 06:01:29;;;;;;;5.55;1.70;;;17.50;99.90;;;;;;5077272;28;20192;-86
2023/07/24 06:04:00;;;;;;;7.18;1.80;;;17.50;99.90;;;;;;5078509;28;20691;-85
2023/07/24 06:06:31;;;;;;;5.78;1.80;;;17.50;99.90;;;;;;5088093;28;20187;-85
2023/07/24 06:09:02;;;;;;;8.32;1.98;;;17.60;99.90;;;;;;5079699;28;20223;-86
2023/07/24 06:11:33;;;;;;;6.95;1.80;;;17.70;99.90;;;;;;5085521;28;20233;-86
2023/07/24 06:14:06;;;;;;;5.70;1.95;;;17.70;99.90;;;;;;5084981;28;20218;-85
2023/07/24 06:16:38;;;;;;;4.63;1.60;;;17.70;99.90;;;;;;5077275;28;20580;-86
2023/07/24 06:19:08;;;;;;;8.98;1.90;;;17.70;99.90;;;;;;5072091;28;20203;-86
2023/07/24 06:21:39;;;;;;;5.93;1.83;;;17.80;99.90;;;;;;5091757;28;20203;-86
2023/07/24 06:24:11;;;;;;;4.80;1.73;;;17.90;99.90;;;;;;5090847;28;20195;-86
2023/07/24 06:26:42;;;;;;;6.95;1.67;;;17.90;99.90;;;;;;5096049;28;20203;-86
2023/07/24 06:29:16;;;;;;;6.30;1.52;;;17.90;99.90;;;;;;5101350;28;20274;-84
2023/07/24 06:31:47;;;;;;;6.10;1.92;;;17.90;99.90;;;;;;5102662;28;20214;-85
2023/07/24 06:34:17;;;;;;;5.13;1.73;;;17.90;99.90;;;;;;5103496;28;20207;-86
2023/07/24 06:36:48;;;;;;;3.53;1.42;;;17.90;99.90;;;;;;5099150;28;20187;-86
2023/07/24 06:39:19;;;;;;;4.38;1.75;;;17.80;99.90;;;;;;5096296;28;20247;-88
2023/07/24 06:41:50;;;;;;;6.20;1.70;;;17.70;99.90;;;;;;5087101;28;20192;-88
2023/07/24 06:44:22;;;;;;;6.05;1.77;;;17.60;99.90;;;;;;5076484;28;20203;-88
2023/07/24 06:46:54;;;;;;;5.60;1.65;;;17.50;99.90;;;;;;5081987;28;20215;-87
2023/07/24 06:49:26;;;;;;;3.97;1.60;;;17.40;99.90;;;;;;5080815;28;20227;-88
2023/07/24 06:51:58;;;;;;;4.10;1.52;;;17.40;99.90;;;;;;5101039;28;20258;-86
2023/07/24 06:57:13;;;;;;;5.70;1.88;;;17.20;99.90;;;;;;5096641;28;20203;-86
2023/07/24 06:59:47;;;;;;;3.97;1.67;;;17.20;99.90;;;;;;5100076;28;20226;-87
2023/07/24 07:02:20;;;;;;;4.82;1.77;;;17.10;99.90;;;;;;5089343;28;20231;-89
2023/07/24 07:04:55;;;;;;;8.90;2.22;;;17.00;99.90;;;;;;5078369;28;20222;-88
2023/07/24 07:07:27;;;;;;;5.57;2.13;;;17.00;99.90;;;;;;5076978;28;20201;-90
2023/07/24 07:09:58;;;;;;;8.20;1.85;;;16.90;99.90;;;;;;5076473;28;20235;-89
2023/07/24 07:12:29;;;;;;;5.32;1.70;;;16.80;99.90;;;;;;5086759;28;20658;-88
2023/07/24 07:15:03;;;;;;;5.97;2.03;;;16.80;99.90;;;;;;5086018;28;20269;-90
2023/07/24 07:17:35;;;;;;;5.63;1.73;;;16.70;99.90;;;;;;5076666;28;20260;-91
2023/07/24 07:20:06;;;;;;;5.72;2.58;;;16.70;99.90;;;;;;5088905;28;20275;-90
2023/07/24 07:22:37;;;;;;;9.95;2.60;;;16.60;99.90;;;;;;5097095;28;20413;-92
2023/07/24 07:25:16;;;;;;;5.95;1.90;;;16.50;99.90;;;;;;5095930;28;20210;-93
2023/07/24 07:27:47;;;;;;;6.20;1.88;;;16.50;99.90;;;;;;5086205;28;20206;-89
2023/07/24 07:30:20;;;;;;;4.25;1.90;;;16.40;99.90;;;;;;5090669;28;20722;-91
2023/07/24 07:32:51;;;;;;;4.30;1.80;;;16.40;99.90;;;;;;5075603;28;20204;-89
2023/07/24 07:35:23;;;;;;;4.90;1.90;;;16.40;99.90;;;;;;5076117;28;20191;-90
2023/07/24 07:37:53;;;;;;;5.75;2.22;;;16.30;99.90;;;;;;5075772;28;20238;-89
2023/07/24 07:40:26;;;;;;;5.63;1.67;;;16.30;99.90;;;;;;5075650;28;20577;-91
2023/07/24 07:42:57;;;;;;;5.60;1.83;;;16.30;99.90;;;;;;5079265;28;20220;-88
2023/07/24 07:45:31;;;;;;;7.63;2.15;;;16.30;99.90;;;;;;5087348;28;20307;-91
2023/07/24 07:48:03;;;;;;;7.70;2.10;;;16.20;99.90;;;;;;5090444;28;20192;-86
2023/07/24 07:50:35;;;;;;;8.68;2.53;;;16.20;99.90;;;;;;5096999;28;20220;-87
2023/07/24 07:53:07;;;;;;;8.00;3.08;;;16.20;99.90;;;;;;5085890;28;20231;-91
2023/07/24 07:55:39;;;;;;;7.95;2.30;;;16.10;99.90;;;;;;5096442;28;20199;-91
2023/07/24 07:58:10;;;;;;;5.97;2.17;;;16.10;99.90;;;;;;5097084;28;20195;-90
2023/07/24 08:00:44;;;;;;;8.02;2.65;;;16.10;99.90;;;;;;5077030;28;20214;-91
2023/07/24 08:03:15;;;;;;;6.13;2.67;;;16.10;99.90;;;;;;5075888;28;20223;-90
2023/07/24 08:05:51;;;;;;;7.57;2.50;;;16.00;99.90;;;;;;5090762;28;20282;-92
2023/07/24 08:08:23;;;;;;;11.25;2.88;;;16.00;99.90;;;;;;5085185;28;20259;-92
2023/07/24 08:10:55;;;;;;;7.40;2.50;;;16.00;99.90;;;;;;5080174;28;20200;-91
2023/07/24 08:13:27;;;;;;;4.90;2.65;;;16.00;99.90;;;;;;5080737;28;20203;-91
2023/07/24 08:16:03;;;;;;;6.55;3.05;;;16.00;99.90;;;;;;5081869;28;20220;-90
2023/07/24 08:18:35;;;;;;;6.57;2.70;;;16.00;99.90;;;;;;5090721;28;20219;-91
2023/07/24 08:21:08;;;;;;;7.10;2.70;;;16.00;99.90;;;;;;5095079;28;20290;-90
2023/07/24 08:23:40;;;;;;;7.32;2.90;;;15.90;99.90;;;;;;5078153;28;20652;-90
2023/07/24 08:26:12;;;;;;;7.18;2.60;;;16.00;99.90;;;;;;5079796;28;20274;-89
2023/07/24 08:28:43;;;;;;;9.30;3.20;;;15.90;99.90;;;;;;5079476;28;20207;-89
2023/07/24 08:31:17;;;;;;;9.55;2.83;;;15.90;99.90;;;;;;5085895;28;20195;-89
2023/07/24 08:33:48;;;;;;;7.00;2.60;;;15.90;99.90;;;;;;5086365;28;20340;-91
2023/07/24 08:36:20;;;;;;;7.65;3.10;;;15.90;99.90;;;;;;5082678;28;20192;-89
2023/07/24 08:38:52;;;;;;;9.88;3.30;;;15.80;99.90;;;;;;5095638;28;20234;-90
2023/07/24 08:41:23;;;;;;;5.90;2.90;;;15.80;99.90;;;;;;5096246;28;20278;-90
2023/07/24 08:43:54;;;;;;;8.65;2.70;;;15.80;99.90;;;;;;5088973;28;20199;-91
2023/07/24 08:46:30;;;;;;;9.25;3.30;;;15.80;99.90;;;;;;5077528;28;20204;-91
2023/07/24 08:49:02;;;;;;;6.88;3.17;;;15.80;99.90;;;;;;5085672;28;20218;-87
2023/07/24 08:51:37;;;;;;;11.30;3.60;;;15.70;99.90;;;;;;5082834;28;20659;-89
2023/07/24 08:54:08;;;;;;;6.97;3.40;;;15.70;99.90;;;;;;5081253;28;20199;-89
2023/07/24 08:56:41;;;;;;;7.45;3.90;;;15.60;99.90;;;;;;5086116;28;20214;-88
2023/07/24 08:59:13;;;;;;;7.15;3.60;;;15.60;99.90;;;;;;5078871;28;20208;-88
2023/07/24 09:01:46;;;;;;;8.02;4.10;;;15.60;99.90;;;;;;5091981;28;20257;-88
2023/07/24 09:04:17;;;;;;;7.00;4.88;;;15.60;99.90;;;;;;5102535;28;20194;-89
2023/07/24 09:06:48;;;;;;;9.00;5.00;;;15.50;99.90;;;;;;5098235;28;20211;-92
2023/07/24 09:09:22;;;;;;;8.38;4.28;;;15.50;99.90;;;;;;5090955;28;20888;-92
2023/07/24 09:11:55;;;;;;;8.77;4.25;;;15.50;99.90;;;;;;5091937;28;20750;-90
2023/07/24 09:14:29;;;;;;;11.48;5.25;;;15.50;99.90;;;;;;5086856;28;20233;-92
2023/07/24 09:17:14;;;;;;;13.45;5.70;;;15.50;99.90;;;;;;5097473;28;20738;-91
2023/07/24 09:19:46;;;;;;;12.00;6.03;;;15.50;99.90;;;;;;5093346;28;20207;-90
2023/07/24 09:22:20;;;;;;;15.40;6.65;;;15.50;99.90;;;;;;5092696;28;20206;-91
2023/07/24 09:24:54;;;;;;;12.82;5.40;;;15.40;99.90;;;;;;5077301;28;20220;-89
2023/07/24 09:27:28;;;;;;;11.15;4.50;;;15.40;99.90;;;;;;5082060;28;20234;-89
2023/07/24 09:29:59;;;;;;;10.77;5.32;;;15.40;99.90;;;;;;5075676;28;20217;-88
2023/07/24 09:32:34;;;;;;;11.57;4.93;;;15.40;99.90;;;;;;5072746;28;20718;-88
2023/07/24 09:35:04;;;;;;;15.02;8.10;;;15.40;99.90;;;;;;5072344;28;20278;-88
2023/07/24 09:37:38;;;;;;;22.25;16.80;;;15.40;99.90;;;;;;5078428;28;20650;-89
2023/07/24 09:40:09;;;;;;;20.95;14.20;;;15.30;99.90;;;;;;5093470;28;20689;-89
2023/07/24 09:42:42;;;;;;;14.75;10.65;;;15.30;99.90;;;;;;5075981;28;20278;-89
2023/07/24 09:45:16;;;;;;;12.25;8.40;;;15.30;99.90;;;;;;5086121;28;20200;-90
2023/07/24 09:47:52;;;;;;;11.68;6.90;;;15.30;99.90;;;;;;5075796;28;20563;-92
2023/07/24 09:50:24;;;;;;;12.90;6.55;;;15.30;99.90;;;;;;5091915;28;20207;-90
2023/07/24 09:52:56;;;;;;;10.20;6.07;;;15.30;99.90;;;;;;5093755;28;20199;-92
2023/07/24 09:55:33;;;;;;;8.10;4.75;;;15.30;99.90;;;;;;5079101;28;20560;-91
2023/07/24 09:58:06;;;;;;;8.40;4.75;;;15.20;99.90;;;;;;5082484;28;20203;-89
2023/07/24 10:00:37;;;;;;;12.98;5.03;;;15.20;99.90;;;;;;5089573;28;20197;-91
2023/07/24 10:03:14;;;;;;;8.40;5.07;;;15.30;99.90;;;;;;5080985;28;20286;-88
2023/07/24 10:05:50;;;;;;;13.48;6.22;;;15.20;99.90;;;;;;5094519;28;20179;-87
2023/07/24 10:08:22;;;;;;;10.90;6.20;;;15.20;99.90;;;;;;5094603;28;20211;-90
2023/07/24 10:10:53;;;;;;;12.35;6.55;;;15.10;99.90;;;;;;5084654;28;20218;-88
2023/07/24 10:13:26;;;;;;;10.57;6.28;;;15.10;99.90;;;;;;5098782;28;20278;-89
2023/07/24 10:15:58;;;;;;;12.18;5.68;;;15.10;99.90;;;;;;5085804;28;20259;-90
2023/07/24 10:18:34;;;;;;;12.50;6.40;;;15.10;99.90;;;;;;5080871;28;20199;-89
2023/07/24 10:21:09;;;;;;;14.15;6.55;;;15.00;99.90;;;;;;5075386;28;20207;-89
2023/07/24 10:23:43;;;;;;;9.38;6.38;;;15.00;99.90;;;;;;5085942;28;20201;-90
2023/07/24 10:26:15;;;;;;;10.32;5.20;;;15.00;99.90;;;;;;5084849;28;20199;-90
2023/07/24 10:28:49;;;;;;;10.52;5.50;;;15.00;99.90;;;;;;5082933;28;20269;-91
2023/07/24 10:31:26;;;;;;;8.13;4.50;;;15.00;99.90;;;;;;5082904;28;20223;-92
2023/07/24 10:34:09;;;;;;;9.27;4.95;;;15.00;99.90;;;;;;5084137;28;20203;-92
2023/07/24 10:36:41;;;;;;;8.77;4.50;;;15.00;99.90;;;;;;5077455;28;20216;-90
2023/07/24 10:39:20;;;;;;;12.40;5.22;;;15.00;99.90;;;;;;5087793;28;20233;-86
2023/07/24 10:41:51;;;;;;;9.38;5.10;;;14.90;99.90;;;;;;5092763;28;20195;-88
2023/07/24 10:44:32;;;;;;;9.98;5.20;;;14.90;99.90;;;;;;5095124;28;20192;-90
2023/07/24 10:47:03;;;;;;;9.95;5.55;;;14.80;99.90;;;;;;5081691;28;20220;-89
2023/07/24 10:49:39;;;;;;;12.95;6.15;;;14.80;99.90;;;;;;5081934;28;20294;-88
2023/07/24 10:52:13;;;;;;;11.27;5.45;;;14.80;99.90;;;;;;5081546;28;20218;-88
2023/07/24 10:54:45;;;;;;;10.05;5.05;;;14.80;99.90;;;;;;5076049;28;20678;-90
2023/07/24 10:57:19;;;;;;;8.80;4.57;;;14.70;99.90;;;;;;5074730;28;20218;-91
2023/07/24 10:59:52;;;;;;;12.57;4.88;;;14.60;99.90;;;;;;5074533;28;20746;-89
2023/07/24 11:02:23;;;;;;;9.82;4.80;;;14.60;99.90;;;;;;5074753;28;20315;-90
2023/07/24 11:04:56;;;;;;;8.52;4.43;;;14.60;99.90;;;;;;5084715;28;20195;-89
2023/07/24 11:07:28;;;;;;;10.50;5.03;;;14.50;99.90;;;;;;5096428;28;20199;-90
2023/07/24 11:09:59;;;;;;;11.25;4.93;;;14.50;99.90;;;;;;5093944;28;20227;-92
2023/07/24 11:12:31;;;;;;;8.93;4.50;;;14.50;99.90;;;;;;5096990;28;20290;-88
2023/07/24 11:15:03;;;;;;;8.65;4.40;;;14.50;99.90;;;;;;5096291;28;20209;-88
2023/07/24 11:17:42;;;;;;;9.95;4.63;;;14.50;99.90;;;;;;5093172;28;20220;-93
2023/07/24 11:20:25;;;;;;;7.45;4.60;;;14.50;99.90;;;;;;5097308;28;20199;-90
2023/07/24 11:23:01;;;;;;;10.23;4.45;;;14.50;99.90;;;;;;5104923;28;20199;-92
2023/07/24 11:25:41;;;;;;;10.27;4.78;;;14.50;99.90;;;;;;5111868;28;20308;-91
2023/07/24 11:28:19;;;;;;;9.65;5.15;;;14.50;99.90;;;;;;5106604;28;20219;-92
2023/07/24 11:30:53;;;;;;;8.43;4.63;;;14.50;99.90;;;;;;5090411;28;20243;-89
2023/07/24 11:33:27;;;;;;;11.13;5.40;;;14.50;99.90;;;;;;5087313;28;20204;-91
2023/07/24 11:36:14;;;;;;;7.75;5.00;;;14.50;99.90;;;;;;5083892;28;20195;-93
2023/07/24 11:38:49;;;;;;;8.90;4.95;;;14.40;99.90;;;;;;5088347;28;20208;-91
2023/07/24 11:41:26;;;;;;;9.73;5.43;;;14.40;99.90;;;;;;5088704;28;20207;-93
2023/07/24 11:43:58;;;;;;;8.07;5.05;;;14.40;99.90;;;;;;5086510;28;20188;-90
2023/07/24 11:46:34;;;;;;;9.40;5.18;;;14.30;99.90;;;;;;5090431;28;20203;-92
2023/07/24 11:49:10;;;;;;;9.13;5.93;;;14.30;99.90;;;;;;5103316;28;20199;-92
2023/07/24 11:51:55;;;;;;;9.63;5.20;;;14.30;99.90;;;;;;5114791;28;20238;-92
2023/07/24 11:54:29;;;;;;;9.85;5.18;;;14.30;99.90;;;;;;5113766;28;20203;-93
2023/07/24 11:57:11;;;;;;;7.68;4.65;;;14.20;99.90;;;;;;5102922;28;20203;-92
2023/07/24 11:59:45;;;;;;;8.95;4.80;;;14.30;99.90;;;;;;5106760;28;20199;-92
2023/07/24 12:02:19;;;;;;;10.32;5.30;;;14.20;99.90;;;;;;5104132;28;20222;-91
2023/07/24 12:04:57;;;;;;;9.55;5.25;;;14.20;99.90;;;;;;5086072;28;20229;-92
2023/07/24 12:07:37;;;;;;;11.48;6.38;;;14.20;99.90;;;;;;5083781;28;20203;-92
2023/07/24 12:10:15;;;;;;;10.40;5.38;;;14.20;99.90;;;;;;5084622;28;20219;-93
2023/07/24 12:12:56;;;;;;;9.73;5.10;;;14.20;99.90;;;;;;5084252;28;20209;-91
2023/07/24 12:15:35;;;;;;;9.30;5.22;;;14.20;99.90;;;;;;5082620;28;20254;-90
2023/07/24 12:18:08;;;;;;;8.90;5.32;;;14.20;99.90;;;;;;5087379;28;20195;-87
2023/07/24 12:20:41;;;;;;;11.88;5.85;;;14.20;99.90;;;;;;5085475;28;20207;-90
2023/07/24 12:23:23;;;;;;;7.90;5.50;;;14.10;99.90;;;;;;5086178;28;20266;-94
2023/07/24 12:28:43;;;;;;;9.10;6.13;;;14.10;99.90;;;;;;5116688;28;20219;-93
2023/07/24 12:31:22;;;;;;;8.73;5.90;;;14.10;99.90;;;;;;5115482;28;20206;-93
2023/07/24 12:33:54;;;;;;;11.10;6.07;;;14.10;99.90;;;;;;5102945;28;20733;-90
2023/07/24 12:36:37;;;;;;;9.50;5.63;;;14.10;99.90;;;;;;5109775;28;20199;-91
2023/07/24 12:42:12;;;;;;;9.35;5.50;;;14.00;99.90;;;;;;5090478;28;20211;-92
2023/07/24 12:44:56;;;;;;;8.18;5.32;;;13.90;99.90;;;;;;5081357;28;20204;-92
2023/07/24 12:47:34;;;;;;;10.52;5.80;;;13.90;99.90;;;;;;5083150;28;20196;-92
2023/07/24 12:50:12;;;;;;;7.82;5.22;;;13.90;99.90;;;;;;5083644;28;20282;-93
2023/07/24 12:52:44;;;;;;;9.70;6.22;;;13.80;99.90;;;;;;5084054;28;20252;-93
2023/07/24 12:55:23;;;;;;;9.25;6.15;;;13.70;99.90;;;;;;5082684;28;20554;-89
2023/07/24 12:57:57;;;;;;;12.32;5.78;;;13.70;99.90;;;;;;5081705;28;20204;-92
2023/07/24 13:00:34;;;;;;;8.35;5.60;;;13.70;99.90;;;;;;5082050;28;20187;-92
2023/07/24 13:03:12;;;;;;;11.00;6.35;;;13.70;99.90;;;;;;5084479;28;20322;-94
2023/07/24 13:05:50;;;;;;;11.38;6.53;;;13.70;99.90;;;;;;5087035;28;20211;-94
2023/07/24 13:08:23;;;;;;;9.32;5.60;;;13.70;99.90;;;;;;5083258;28;20206;-90
2023/07/24 13:10:56;;;;;;;11.25;6.22;;;13.70;99.90;;;;;;5082098;28;20227;-93
2023/07/24 13:13:32;;;;;;;9.75;6.20;;;13.70;99.90;;;;;;5104206;28;20195;-92
2023/07/24 13:16:13;;;;;;;11.50;6.40;;;13.60;99.90;;;;;;5104928;28;20697;-91
2023/07/24 13:18:45;;;;;;;12.23;6.40;;;13.60;99.90;;;;;;5102229;28;20220;-89
2023/07/24 13:21:18;;;;;;;11.43;6.32;;;13.60;99.90;;;;;;5100991;28;20211;-92
2023/07/24 13:23:53;;;;;;;11.63;6.40;;;13.60;99.90;;;;;;5102512;28;20211;-92